Time;durP1;ratioP1;P1;durP2;ratioP2;P2;SDS_P1;SDS_P2;PMS_P1;PMS_P2;Temp;Humidity;BMP_temperature;BMP_pressure;BME280_temperature;BME280_humidity;BME280_pressure;Samples;Min_cycle;Max_cycle;Signal;HPM_P1;HPM_P2
2022/04/18 00:02:20;;;;;;;4.40;3.53;;;5.90;99.90;;;;;;5047773;28;20209;-88
2022/04/18 00:04:45;;;;;;;3.50;2.70;;;6.00;99.90;;;;;;5047457;28;20221;-88
2022/04/18 00:07:11;;;;;;;4.53;4.13;;;5.90;99.90;;;;;;5047581;28;20231;-88
2022/04/18 00:09:37;;;;;;;5.13;3.27;;;5.80;99.90;;;;;;5048165;28;20213;-88
2022/04/18 00:12:04;;;;;;;5.73;3.37;;;5.70;99.90;;;;;;5047352;28;20247;-83
2022/04/18 00:14:30;;;;;;;4.47;3.03;;;5.70;99.90;;;;;;5064762;28;20201;-89
2022/04/18 00:16:56;;;;;;;3.43;3.13;;;5.70;99.90;;;;;;5047507;28;20681;-89
2022/04/18 00:19:22;;;;;;;5.23;4.40;;;5.70;99.90;;;;;;5065205;28;20440;-88
2022/04/18 00:21:49;;;;;;;2.73;2.47;;;5.70;99.90;;;;;;5081109;28;20212;-90
2022/04/18 00:24:17;;;;;;;4.43;3.70;;;5.60;99.90;;;;;;5080783;28;20205;-89
2022/04/18 00:26:43;;;;;;;5.00;3.57;;;5.60;99.90;;;;;;5081184;28;20193;-88
2022/04/18 00:29:09;;;;;;;5.50;3.47;;;5.80;99.90;;;;;;5064287;28;20217;-89
2022/04/18 00:31:35;;;;;;;3.83;3.50;;;5.80;99.90;;;;;;5063754;28;20220;-88
2022/04/18 00:34:01;;;;;;;3.17;2.90;;;5.70;99.90;;;;;;5063744;28;20380;-89
2022/04/18 00:36:27;;;;;;;5.80;3.30;;;5.50;99.90;;;;;;5063622;28;20236;-88
2022/04/18 00:38:53;;;;;;;4.73;4.30;;;5.30;99.90;;;;;;5064181;28;20189;-89
2022/04/18 00:41:19;;;;;;;2.77;2.40;;;5.20;99.90;;;;;;5063581;28;20225;-89
2022/04/18 00:43:49;;;;;;;4.30;2.53;;;5.20;99.90;;;;;;5046865;28;20274;-89
2022/04/18 00:46:17;;;;;;;9.50;3.67;;;5.10;99.90;;;;;;5037328;28;20224;-88
2022/04/18 00:48:44;;;;;;;7.07;4.20;;;5.20;99.90;;;;;;5047074;28;20542;-89
2022/04/18 00:51:12;;;;;;;3.67;3.20;;;5.20;99.90;;;;;;5064878;28;20185;-89
2022/04/18 00:53:39;;;;;;;7.13;4.27;;;5.30;99.90;;;;;;5063521;28;20197;-89
2022/04/18 00:56:06;;;;;;;4.57;3.17;;;5.40;99.90;;;;;;5062514;28;20224;-89
2022/04/18 00:58:32;;;;;;;6.93;4.43;;;5.40;99.90;;;;;;5062449;28;20893;-89
2022/04/18 01:00:59;;;;;;;4.83;3.00;;;5.30;99.90;;;;;;5064360;28;20221;-89
2022/04/18 01:03:26;;;;;;;2.67;2.57;;;5.20;99.90;;;;;;5045744;28;20227;-89
2022/04/18 01:05:52;;;;;;;6.43;4.40;;;5.10;99.90;;;;;;5081001;28;20190;-88
2022/04/18 01:08:18;;;;;;;3.03;2.80;;;5.00;99.90;;;;;;5078127;28;20240;-88
2022/04/18 01:10:44;;;;;;;3.20;3.00;;;4.90;99.90;;;;;;5079714;28;20217;-87
2022/04/18 01:13:11;;;;;;;4.00;3.67;;;4.80;99.90;;;;;;5063103;28;20739;-88
2022/04/18 01:15:36;;;;;;;3.03;2.70;;;4.80;99.90;;;;;;5065391;28;20697;-89
2022/04/18 01:18:02;;;;;;;2.87;2.63;;;4.70;99.90;;;;;;5081242;28;20708;-87
2022/04/18 01:20:35;;;;;;;3.73;3.33;;;4.70;99.90;;;;;;5047263;28;20309;-87
2022/04/18 01:23:02;;;;;;;2.10;1.80;;;4.60;99.90;;;;;;5079966;28;20221;-89
2022/04/18 01:30:57;;;;;;;4.30;3.87;;;4.70;99.90;;;;;;5075876;28;20222;-89
2022/04/18 01:33:23;;;;;;;7.00;4.93;;;4.80;99.90;;;;;;5077661;28;20283;-88
2022/04/18 01:35:49;;;;;;;4.90;3.03;;;4.80;99.90;;;;;;5046692;28;20283;-89
2022/04/18 01:38:15;;;;;;;6.63;3.63;;;4.80;99.90;;;;;;5046472;28;20245;-89
2022/04/18 01:40:41;;;;;;;6.63;3.07;;;4.90;99.90;;;;;;5047291;28;20241;-89
2022/04/18 01:43:07;;;;;;;4.43;3.43;;;4.80;99.90;;;;;;5047191;28;20217;-88
2022/04/18 01:45:33;;;;;;;5.33;3.80;;;4.80;99.90;;;;;;5080989;28;20236;-88
2022/04/18 01:47:59;;;;;;;4.13;3.37;;;4.80;99.90;;;;;;5064156;28;20208;-89
2022/04/18 01:50:24;;;;;;;4.80;3.37;;;5.00;99.90;;;;;;5072902;28;20224;-88
2022/04/18 01:52:50;;;;;;;5.13;2.63;;;5.00;99.90;;;;;;5046841;28;20236;-88
2022/04/18 01:55:16;;;;;;;5.87;4.27;;;5.10;99.90;;;;;;5063882;28;20296;-89
2022/04/18 01:57:41;;;;;;;3.97;3.67;;;5.10;99.90;;;;;;5063769;28;20236;-89
2022/04/18 02:00:08;;;;;;;6.07;3.77;;;5.00;99.90;;;;;;5063633;28;20267;-88
2022/04/18 02:02:34;;;;;;;3.73;3.17;;;4.90;99.90;;;;;;5065645;28;20185;-87
2022/04/18 02:05:00;;;;;;;5.90;3.80;;;5.00;99.90;;;;;;5062994;28;20225;-88
2022/04/18 02:07:28;;;;;;;4.67;4.27;;;5.00;99.90;;;;;;5046980;28;20344;-88
2022/04/18 02:09:55;;;;;;;4.07;3.17;;;4.90;99.90;;;;;;5046378;28;20213;-88
2022/04/18 02:12:21;;;;;;;5.53;3.83;;;4.80;99.90;;;;;;5063992;28;20558;-87
2022/04/18 02:14:47;;;;;;;3.83;3.13;;;4.60;99.90;;;;;;5063947;28;20178;-89
2022/04/18 02:17:13;;;;;;;7.33;3.83;;;4.40;99.90;;;;;;5046983;28;20229;-88
2022/04/18 02:19:38;;;;;;;6.63;4.30;;;4.30;99.90;;;;;;5046598;28;20408;-88
2022/04/18 02:22:05;;;;;;;4.13;3.73;;;4.20;99.90;;;;;;5063073;28;20217;-89
2022/04/18 02:24:31;;;;;;;9.93;5.10;;;4.20;99.90;;;;;;5064703;28;20248;-88
2022/04/18 02:26:57;;;;;;;4.37;3.27;;;4.30;99.90;;;;;;5046991;28;20190;-88
2022/04/18 02:29:23;;;;;;;5.27;4.37;;;4.20;99.90;;;;;;5063109;28;20218;-89
2022/04/18 02:34:34;;;;;;;5.10;4.70;;;3.90;99.90;;;;;;5063109;28;20217;-88
2022/04/18 02:36:59;;;;;;;5.03;4.40;;;3.80;99.90;;;;;;5066338;28;20244;-89
2022/04/18 02:39:25;;;;;;;4.47;4.07;;;3.80;99.90;;;;;;5066956;28;20240;-88
2022/04/18 02:41:51;;;;;;;3.63;3.33;;;3.80;99.90;;;;;;5083214;28;20230;-89
2022/04/18 02:44:17;;;;;;;3.43;3.23;;;3.80;99.90;;;;;;5049169;28;20245;-88
2022/04/18 02:46:42;;;;;;;7.43;5.10;;;3.90;99.90;;;;;;5066574;28;20225;-88
2022/04/18 02:49:08;;;;;;;10.17;4.10;;;3.90;99.90;;;;;;5049737;28;21414;-89
2022/04/18 02:51:34;;;;;;;10.13;4.10;;;4.00;99.90;;;;;;5066483;28;20252;-88
2022/04/18 02:54:00;;;;;;;3.73;3.43;;;4.10;99.90;;;;;;5059674;28;20673;-88
2022/04/18 02:56:26;;;;;;;5.47;4.73;;;4.10;99.90;;;;;;5066421;28;20590;-88
2022/04/18 02:58:51;;;;;;;5.07;4.03;;;4.10;99.90;;;;;;5066643;28;20300;-88
2022/04/18 03:01:17;;;;;;;7.60;3.33;;;4.00;99.90;;;;;;5066053;28;20232;-88
2022/04/18 03:03:43;;;;;;;4.43;3.70;;;4.00;99.90;;;;;;5083433;28;20362;-88
2022/04/18 03:06:10;;;;;;;6.97;4.60;;;3.90;99.90;;;;;;5049114;28;20190;-88
2022/04/18 03:08:36;;;;;;;3.93;3.63;;;3.90;99.90;;;;;;5049744;28;20212;-89
2022/04/18 03:11:09;;;;;;;5.70;4.30;;;3.90;99.90;;;;;;5082980;28;20224;-88
2022/04/18 03:13:36;;;;;;;5.07;4.10;;;3.90;99.90;;;;;;5065371;28;20223;-88
2022/04/18 03:16:04;;;;;;;5.40;4.23;;;3.90;99.90;;;;;;5082513;28;20267;-87
2022/04/18 03:18:30;;;;;;;5.50;5.00;;;4.00;99.90;;;;;;5073030;28;20268;-88
2022/04/18 03:20:57;;;;;;;3.27;3.03;;;4.00;99.90;;;;;;5064825;28;20193;-89
2022/04/18 03:23:23;;;;;;;4.57;4.17;;;3.90;99.90;;;;;;5047559;28;20225;-88
2022/04/18 03:25:48;;;;;;;3.57;3.23;;;3.70;99.90;;;;;;5080879;28;20217;-89
2022/04/18 03:28:15;;;;;;;6.43;4.27;;;3.60;99.90;;;;;;5082547;28;20229;-88
2022/04/18 03:30:41;;;;;;;3.43;2.93;;;3.40;99.90;;;;;;5066420;28;20262;-89
2022/04/18 03:33:07;;;;;;;5.83;5.23;;;3.30;99.90;;;;;;5046554;28;20284;-88
2022/04/18 03:35:33;;;;;;;7.40;4.03;;;3.30;99.90;;;;;;5080972;28;20189;-88
2022/04/18 03:40:43;;;;;;;3.87;3.50;;;3.20;99.90;;;;;;5065588;28;20228;-88
2022/04/18 03:43:09;;;;;;;7.83;4.07;;;3.20;99.90;;;;;;5048807;28;20269;-88
2022/04/18 03:45:35;;;;;;;3.90;3.00;;;3.20;99.90;;;;;;5066139;28;20255;-89
2022/04/18 03:48:00;;;;;;;3.53;3.33;;;3.20;99.90;;;;;;5048065;28;20185;-87
2022/04/18 03:50:26;;;;;;;3.40;3.07;;;3.20;99.90;;;;;;5064272;28;20213;-89
2022/04/18 03:52:52;;;;;;;4.90;3.80;;;3.20;99.90;;;;;;5064491;28;21071;-88
2022/04/18 03:55:18;;;;;;;3.77;3.10;;;3.20;99.90;;;;;;5063638;28;20582;-88
2022/04/18 03:57:44;;;;;;;3.53;3.27;;;3.20;99.90;;;;;;5047144;28;20239;-89
2022/04/18 04:00:11;;;;;;;4.13;3.80;;;3.30;99.90;;;;;;5065005;28;20579;-88
2022/04/18 04:02:37;;;;;;;6.10;3.60;;;3.30;99.90;;;;;;5064906;28;20205;-88
2022/04/18 04:05:03;;;;;;;3.40;3.20;;;3.70;99.90;;;;;;5064162;28;20611;-88
2022/04/18 04:07:29;;;;;;;5.57;4.90;;;3.80;99.90;;;;;;5063702;28;20215;-90
2022/04/18 04:09:55;;;;;;;5.83;5.30;;;4.00;99.90;;;;;;5061929;28;20213;-89
2022/04/18 04:12:25;;;;;;;4.90;3.77;;;4.00;99.90;;;;;;5062861;28;20724;-88
2022/04/18 04:14:55;;;;;;;5.47;4.60;;;3.80;99.90;;;;;;5047326;28;20195;-88
2022/04/18 04:17:26;;;;;;;5.63;3.03;;;3.70;99.90;;;;;;5047213;28;20232;-87
2022/04/18 04:19:51;;;;;;;3.67;3.47;;;3.80;99.90;;;;;;5047183;28;20662;-88
2022/04/18 04:22:17;;;;;;;3.53;3.13;;;4.00;99.90;;;;;;5056559;28;20224;-89
2022/04/18 04:24:43;;;;;;;3.80;3.50;;;4.20;99.90;;;;;;5046975;28;20217;-88
2022/04/18 04:27:09;;;;;;;4.63;4.23;;;4.20;99.90;;;;;;5047169;28;20255;-89
2022/04/18 04:29:34;;;;;;;3.63;3.37;;;4.10;99.90;;;;;;5065136;28;20185;-88
2022/04/18 04:32:00;;;;;;;3.97;3.50;;;4.10;99.90;;;;;;5063741;28;20229;-88
2022/04/18 04:34:26;;;;;;;3.97;3.60;;;4.30;99.90;;;;;;5064567;28;20712;-88
2022/04/18 04:36:52;;;;;;;4.40;4.07;;;4.50;99.90;;;;;;5064327;28;20588;-88
2022/04/18 04:39:17;;;;;;;3.63;2.80;;;4.50;99.90;;;;;;5064660;28;20658;-88
2022/04/18 04:41:43;;;;;;;4.90;3.77;;;4.60;99.90;;;;;;5047485;28;20185;-89
2022/04/18 04:44:09;;;;;;;3.77;3.47;;;4.70;99.90;;;;;;5046635;28;20221;-88
2022/04/18 04:46:36;;;;;;;4.97;4.53;;;4.80;99.90;;;;;;5047377;28;20221;-88
2022/04/18 04:49:02;;;;;;;5.27;4.03;;;4.90;99.90;;;;;;5063497;28;20248;-88
2022/04/18 04:51:28;;;;;;;2.97;2.37;;;4.90;99.90;;;;;;5080728;28;20223;-87
2022/04/18 04:53:54;;;;;;;3.30;3.00;;;5.00;99.90;;;;;;5048016;28;20343;-89
2022/04/18 04:56:22;;;;;;;3.50;3.27;;;5.00;99.90;;;;;;5056520;28;20286;-87
2022/04/18 04:58:49;;;;;;;4.90;4.60;;;5.00;99.90;;;;;;5079846;28;20327;-89
2022/04/18 05:01:16;;;;;;;4.60;4.13;;;5.00;99.90;;;;;;5080579;28;20223;-89
2022/04/18 05:03:41;;;;;;;6.33;4.13;;;5.00;99.90;;;;;;5063383;28;20282;-89
2022/04/18 05:06:07;;;;;;;3.93;3.50;;;5.10;99.90;;;;;;5064439;28;20967;-87
2022/04/18 05:08:33;;;;;;;5.47;4.23;;;5.30;99.90;;;;;;5046955;28;20217;-89
2022/04/18 05:11:02;;;;;;;4.13;3.07;;;5.30;99.90;;;;;;5063384;28;20673;-88
2022/04/18 05:13:28;;;;;;;3.50;3.10;;;5.40;99.90;;;;;;5063178;28;20698;-88
2022/04/18 05:15:54;;;;;;;11.50;3.03;;;5.50;99.90;;;;;;5046528;28;20213;-88
2022/04/18 05:18:20;;;;;;;9.53;5.07;;;5.70;99.90;;;;;;5054706;28;20232;-88
2022/04/18 05:20:46;;;;;;;3.47;2.93;;;6.00;99.90;;;;;;5080712;28;20240;-88
2022/04/18 05:23:15;;;;;;;4.47;4.10;;;6.20;99.90;;;;;;5047051;28;20247;-88
2022/04/18 05:25:41;;;;;;;7.87;4.80;;;6.70;99.90;;;;;;5064320;28;20219;-89
2022/04/18 05:28:06;;;;;;;5.70;4.23;;;6.80;99.90;;;;;;5045634;28;20212;-88
2022/04/18 05:30:32;;;;;;;8.30;4.17;;;6.80;99.90;;;;;;5047244;28;21114;-88
2022/04/18 05:32:58;;;;;;;7.27;4.70;;;6.80;99.90;;;;;;5038000;28;21027;-88
2022/04/18 05:35:24;;;;;;;3.70;3.40;;;7.00;99.90;;;;;;5045611;28;20548;-87
2022/04/18 05:37:50;;;;;;;7.60;4.73;;;7.40;99.90;;;;;;5062781;28;20240;-88
2022/04/18 05:40:15;;;;;;;4.87;4.23;;;7.80;99.90;;;;;;5061487;28;20228;-87
2022/04/18 05:42:41;;;;;;;5.13;4.47;;;8.10;99.90;;;;;;5045404;28;20209;-88
2022/04/18 05:45:07;;;;;;;6.47;4.80;;;8.60;99.90;;;;;;5062881;28;20239;-88
2022/04/18 05:47:33;;;;;;;8.30;5.63;;;9.10;99.90;;;;;;5046376;28;20324;-87
2022/04/18 05:49:59;;;;;;;5.53;4.57;;;9.50;99.90;;;;;;5044925;28;20304;-88
2022/04/18 05:52:25;;;;;;;6.30;4.57;;;9.90;99.90;;;;;;5062159;28;20316;-88
2022/04/18 05:54:50;;;;;;;7.77;4.50;;;10.00;99.90;;;;;;5079021;28;20215;-88
2022/04/18 05:57:16;;;;;;;5.43;4.93;;;10.10;99.90;;;;;;5079484;28;20337;-88
2022/04/18 05:59:42;;;;;;;9.90;4.17;;;10.50;99.90;;;;;;5046400;28;20263;-89
2022/04/18 06:02:08;;;;;;;8.33;5.70;;;10.60;99.90;;;;;;5071272;28;20334;-88
2022/04/18 06:04:34;;;;;;;8.23;3.93;;;10.60;99.90;;;;;;5079195;28;20303;-88
2022/04/18 06:07:00;;;;;;;5.80;3.83;;;10.30;99.90;;;;;;5063580;28;20335;-89
2022/04/18 06:09:26;;;;;;;6.17;5.10;;;10.40;99.90;;;;;;5046772;28;20240;-85
2022/04/18 06:11:51;;;;;;;9.77;6.17;;;10.60;99.90;;;;;;5066533;28;20960;-85
2022/04/18 06:14:17;;;;;;;10.07;6.70;;;11.10;99.90;;;;;;5057263;28;20224;-85
2022/04/18 06:16:43;;;;;;;6.93;6.23;;;11.40;99.90;;;;;;5049529;28;20294;-86
2022/04/18 06:19:09;;;;;;;7.13;5.30;;;11.70;99.90;;;;;;5066486;28;20721;-86
2022/04/18 06:21:35;;;;;;;7.23;5.87;;;11.60;99.90;;;;;;5083738;28;20597;-86
2022/04/18 06:24:00;;;;;;;7.60;5.20;;;11.40;99.90;;;;;;5051064;28;20181;-86
2022/04/18 06:26:26;;;;;;;7.57;5.30;;;11.80;99.90;;;;;;5067156;28;20583;-86
2022/04/18 06:28:52;;;;;;;11.50;6.13;;;11.90;99.90;;;;;;5066872;28;20224;-87
2022/04/18 06:31:18;;;;;;;7.80;5.30;;;12.10;99.90;;;;;;5084320;28;20228;-88
2022/04/18 06:33:43;;;;;;;10.40;6.23;;;12.00;99.90;;;;;;5017014;28;20217;-89
2022/04/18 06:36:09;;;;;;;9.17;6.70;;;11.70;99.90;;;;;;5050509;28;20181;-90
2022/04/18 06:38:35;;;;;;;10.30;6.80;;;11.90;99.90;;;;;;5067332;28;20243;-89
2022/04/18 06:41:01;;;;;;;7.60;5.10;;;12.20;99.90;;;;;;5041053;28;20217;-89
2022/04/18 06:43:27;;;;;;;4.00;3.73;;;11.80;99.90;;;;;;5066759;28;20294;-88
2022/04/18 06:45:53;;;;;;;8.03;5.63;;;11.90;99.90;;;;;;5048539;28;20375;-89
2022/04/18 06:48:19;;;;;;;4.97;3.90;;;11.90;99.90;;;;;;5049476;28;20189;-88
2022/04/18 06:50:46;;;;;;;7.87;5.10;;;12.10;99.90;;;;;;5049468;28;20197;-86
2022/04/18 06:53:12;;;;;;;8.20;6.27;;;12.30;99.90;;;;;;5074638;28;20221;-87
2022/04/18 06:58:23;;;;;;;5.10;4.60;;;12.80;99.90;;;;;;5067420;28;20233;-86
2022/04/18 07:00:49;;;;;;;5.23;4.73;;;12.60;99.90;;;;;;5049383;28;20217;-88
2022/04/18 07:03:15;;;;;;;6.37;4.83;;;12.60;99.90;;;;;;5048919;28;20186;-87
2022/04/18 07:05:41;;;;;;;6.80;4.73;;;12.70;99.90;;;;;;5067073;28;20200;-87
2022/04/18 07:08:08;;;;;;;9.90;6.40;;;13.10;99.90;;;;;;5066159;28;20725;-86
2022/04/18 07:10:34;;;;;;;10.03;5.80;;;13.10;99.90;;;;;;5066197;28;20357;-87
2022/04/18 07:13:00;;;;;;;7.63;5.67;;;13.50;99.90;;;;;;5049435;28;20213;-91
2022/04/18 07:15:25;;;;;;;6.87;5.70;;;13.60;99.90;;;;;;5082403;28;21116;-87
2022/04/18 07:17:51;;;;;;;7.63;6.30;;;13.60;99.90;;;;;;5049973;28;20225;-87
2022/04/18 07:20:17;;;;;;;10.50;6.30;;;13.90;99.90;;;;;;5082014;28;20241;-85
2022/04/18 07:22:43;;;;;;;11.10;6.70;;;14.00;99.90;;;;;;5064044;28;20225;-86
2022/04/18 07:25:09;;;;;;;7.03;5.63;;;14.30;99.90;;;;;;5064567;28;20280;-87
2022/04/18 07:27:36;;;;;;;10.73;7.40;;;14.10;99.90;;;;;;5064430;28;20608;-87
2022/04/18 07:30:03;;;;;;;8.70;6.10;;;14.20;99.90;;;;;;5064450;28;20192;-88
2022/04/18 07:32:29;;;;;;;7.63;5.93;;;14.70;99.90;;;;;;5065208;28;20228;-86
2022/04/18 07:35:00;;;;;;;6.83;5.43;;;14.60;99.90;;;;;;5064238;28;20206;-89
2022/04/18 07:37:25;;;;;;;8.90;5.10;;;14.60;99.90;;;;;;5064043;28;20291;-90
2022/04/18 07:39:51;;;;;;;8.93;5.80;;;14.30;99.90;;;;;;5049276;28;20752;-89
2022/04/18 07:42:19;;;;;;;6.40;5.37;;;14.20;99.90;;;;;;5065793;28;20180;-90
2022/04/18 07:44:45;;;;;;;6.43;5.67;;;14.30;99.90;;;;;;5065964;28;20209;-92
2022/04/18 07:47:10;;;;;;;6.90;5.40;;;14.50;99.90;;;;;;5063062;28;21225;-91
2022/04/18 07:49:36;;;;;;;8.07;6.10;;;14.50;99.90;;;;;;5064317;28;20221;-90
2022/04/18 07:52:02;;;;;;;8.63;5.90;;;15.10;99.90;;;;;;5047632;28;20986;-91
2022/04/18 07:54:28;;;;;;;9.20;6.10;;;15.10;99.90;;;;;;5065425;28;20305;-90
2022/04/18 07:56:53;;;;;;;7.27;6.03;;;15.20;99.90;;;;;;5047858;28;20213;-91
2022/04/18 07:59:19;;;;;;;7.70;5.37;;;15.60;99.90;;;;;;5065826;28;20262;-90
2022/04/18 08:01:45;;;;;;;9.33;6.30;;;15.00;99.90;;;;;;5049007;28;20244;-89
2022/04/18 08:04:11;;;;;;;7.53;6.73;;;15.00;99.90;;;;;;5065564;28;21150;-90
2022/04/18 08:06:37;;;;;;;11.30;5.73;;;15.30;99.90;;;;;;5064415;28;20298;-90
2022/04/18 08:09:03;;;;;;;13.63;6.40;;;15.30;99.90;;;;;;5047583;28;20700;-90
2022/04/18 08:11:29;;;;;;;8.63;5.23;;;15.00;99.90;;;;;;5048138;28;20349;-89
2022/04/18 08:13:54;;;;;;;5.17;4.67;;;15.10;99.90;;;;;;5048654;28;20289;-89
2022/04/18 08:16:20;;;;;;;7.53;4.77;;;15.00;99.90;;;;;;5064664;28;20217;-91
2022/04/18 08:18:46;;;;;;;10.13;5.93;;;15.10;99.90;;;;;;5065208;28;20601;-90
2022/04/18 08:21:17;;;;;;;5.67;4.67;;;15.10;99.90;;;;;;5064197;28;20245;-91
2022/04/18 08:23:45;;;;;;;8.90;5.87;;;15.30;99.90;;;;;;5081165;28;20270;-91
2022/04/18 08:26:10;;;;;;;7.50;5.43;;;16.10;99.90;;;;;;5063702;28;20665;-90
2022/04/18 08:28:37;;;;;;;6.20;5.60;;;15.50;99.90;;;;;;5047522;28;20227;-90
2022/04/18 08:31:03;;;;;;;7.60;6.20;;;15.60;99.90;;;;;;5080782;28;20248;-89
2022/04/18 08:33:30;;;;;;;7.33;4.40;;;16.00;99.90;;;;;;5047559;28;20279;-89
2022/04/18 08:35:59;;;;;;;5.23;4.70;;;16.00;99.90;;;;;;5082093;28;20197;-90
2022/04/18 08:38:28;;;;;;;7.77;5.43;;;15.80;99.90;;;;;;5064472;28;20757;-88
2022/04/18 08:41:00;;;;;;;6.03;5.43;;;16.40;99.90;;;;;;5056580;28;20221;-87
2022/04/18 08:43:26;;;;;;;8.33;6.13;;;16.90;99.90;;;;;;5039765;28;20308;-86
2022/04/18 08:45:52;;;;;;;6.47;4.97;;;16.30;99.90;;;;;;5063728;28;20303;-86
2022/04/18 08:53:47;;;;;;;7.43;4.57;;;16.80;99.90;;;;;;5078053;28;20623;-88
2022/04/18 08:56:14;;;;;;;9.53;5.17;;;16.00;99.90;;;;;;5063142;28;20303;-86
2022/04/18 08:58:40;;;;;;;12.40;6.53;;;16.50;99.90;;;;;;5080223;28;20241;-85
2022/04/18 09:01:07;;;;;;;9.27;6.60;;;17.40;99.90;;;;;;5064536;28;20335;-88
2022/04/18 09:03:34;;;;;;;6.10;5.50;;;17.10;99.90;;;;;;5046997;28;20591;-87
2022/04/18 09:06:26;;;;;;;8.23;6.63;;;17.10;99.90;;;;;;5065515;28;20200;-89
2022/04/18 09:08:57;;;;;;;8.43;6.17;;;17.50;99.90;;;;;;5045407;28;20224;-89
2022/04/18 09:11:31;;;;;;;9.10;6.00;;;18.10;99.90;;;;;;5064009;28;20221;-87
2022/04/18 09:14:15;;;;;;;7.97;5.10;;;17.50;99.90;;;;;;5046471;28;20212;-87
2022/04/18 09:16:42;;;;;;;5.27;4.77;;;17.60;99.90;;;;;;5055869;28;20243;-86
2022/04/18 09:19:13;;;;;;;7.10;5.80;;;17.80;99.90;;;;;;5064434;28;20221;-87
2022/04/18 09:22:00;;;;;;;6.07;5.47;;;17.80;99.90;;;;;;5065054;28;20228;-88
2022/04/18 09:24:36;;;;;;;8.87;5.00;;;17.80;99.90;;;;;;5063874;28;20229;-85
2022/04/18 09:27:07;;;;;;;5.93;5.33;;;18.20;99.90;;;;;;5063348;28;20200;-88
2022/04/18 09:29:38;;;;;;;5.83;5.20;;;19.40;99.90;;;;;;5063590;28;20217;-88
2022/04/18 09:32:11;;;;;;;4.87;4.20;;;18.90;99.90;;;;;;5046825;28;20244;-86
2022/04/18 09:34:37;;;;;;;7.53;5.83;;;18.30;99.90;;;;;;5046882;28;20220;-86
2022/04/18 09:37:10;;;;;;;8.00;5.27;;;18.50;99.90;;;;;;5079970;28;20237;-86
2022/04/18 09:39:36;;;;;;;6.63;4.63;;;18.20;99.90;;;;;;5080158;28;20220;-86
2022/04/18 09:42:14;;;;;;;5.53;4.93;;;18.00;99.90;;;;;;5080714;28;20193;-88
2022/04/18 09:44:40;;;;;;;6.87;4.60;;;18.30;99.90;;;;;;5072376;28;20615;-86
2022/04/18 09:47:06;;;;;;;10.07;5.90;;;18.20;99.90;;;;;;5068443;28;20271;-85
2022/04/18 09:49:37;;;;;;;6.80;5.37;;;18.80;99.90;;;;;;5049988;28;20304;-86
2022/04/18 09:52:04;;;;;;;7.67;5.20;;;18.20;99.90;;;;;;5084643;28;20250;-92
2022/04/18 09:54:32;;;;;;;7.17;5.47;;;18.60;99.90;;;;;;5076973;28;20213;-91
2022/04/18 09:57:08;;;;;;;7.70;5.40;;;18.50;99.90;;;;;;5085390;28;20213;-91
2022/04/18 09:59:34;;;;;;;5.77;4.33;;;19.40;99.90;;;;;;5051974;28;20258;-91
2022/04/18 10:02:00;;;;;;;8.47;5.40;;;18.70;99.90;;;;;;5044119;28;20221;-92
2022/04/18 10:04:26;;;;;;;5.80;5.20;;;18.70;99.90;;;;;;5068141;28;20309;-91
2022/04/18 10:06:53;;;;;;;6.03;4.60;;;18.10;99.90;;;;;;5067903;28;20221;-91
2022/04/18 10:09:24;;;;;;;5.83;4.57;;;19.30;99.90;;;;;;5051352;28;20664;-90
2022/04/18 10:11:52;;;;;;;5.80;5.30;;;19.90;99.90;;;;;;5068721;28;20191;-92
2022/04/18 10:14:17;;;;;;;7.20;4.73;;;19.00;99.90;;;;;;5065148;28;20217;-93
2022/04/18 10:16:44;;;;;;;6.77;4.63;;;18.70;99.90;;;;;;5066147;28;20209;-93
2022/04/18 10:19:39;;;;;;;6.23;4.17;;;18.70;99.90;;;;;;5066024;28;20232;-93
2022/04/18 10:22:23;;;;;;;8.30;4.60;;;18.20;99.90;;;;;;5058816;28;20248;-90
2022/04/18 10:24:59;;;;;;;3.90;3.60;;;18.90;99.90;;;;;;5050128;28;20311;-94
2022/04/18 10:28:04;;;;;;;7.07;5.07;;;18.90;99.90;;;;;;5067570;28;20221;-93
2022/04/18 10:30:35;;;;;;;4.70;3.77;;;19.10;99.50;;;;;;5065872;28;20578;-91
2022/04/18 10:33:02;;;;;;;5.27;4.77;;;19.30;99.90;;;;;;5050182;28;20177;-93
2022/04/18 10:35:28;;;;;;;8.63;5.60;;;19.30;99.70;;;;;;5065299;28;20224;-94
2022/04/18 10:37:55;;;;;;;6.63;4.93;;;19.20;99.90;;;;;;5081696;28;21179;-92
2022/04/18 10:40:22;;;;;;;5.03;3.70;;;20.60;99.20;;;;;;5082247;28;20235;-92
2022/04/18 10:42:48;;;;;;;6.43;4.43;;;20.20;97.30;;;;;;5050346;28;21095;-91
2022/04/18 10:45:16;;;;;;;5.37;4.37;;;19.30;99.30;;;;;;5082983;28;20605;-93
2022/04/18 10:48:04;;;;;;;4.73;4.20;;;19.40;99.90;;;;;;5060284;28;20814;-91
2022/04/18 10:50:37;;;;;;;7.30;4.50;;;18.80;98.40;;;;;;5068214;28;20270;-92
2022/04/18 10:53:18;;;;;;;5.23;4.03;;;18.90;99.20;;;;;;5049547;28;20300;-92
2022/04/18 10:55:53;;;;;;;5.17;4.30;;;19.40;98.60;;;;;;5048003;28;20221;-94
2022/04/18 10:58:25;;;;;;;4.27;3.53;;;19.40;97.00;;;;;;5057772;28;20588;-93
2022/04/18 11:00:56;;;;;;;4.27;3.83;;;19.00;99.90;;;;;;5048387;28;20263;-93
2022/04/18 11:03:37;;;;;;;2.93;2.60;;;20.30;96.40;;;;;;5049327;28;20209;-92
2022/04/18 11:06:23;;;;;;;5.17;3.60;;;19.70;96.30;;;;;;5083421;28;20204;-90
2022/04/18 11:09:07;;;;;;;7.53;3.53;;;18.90;97.30;;;;;;5052313;28;20221;-92
2022/04/18 11:11:43;;;;;;;4.43;3.30;;;18.70;98.50;;;;;;5049049;28;20249;-90
2022/04/18 11:14:15;;;;;;;4.40;3.43;;;19.00;95.70;;;;;;5081578;28;20726;-91
2022/04/18 11:16:44;;;;;;;3.63;2.30;;;19.90;95.20;;;;;;5057113;28;20236;-92
2022/04/18 11:19:21;;;;;;;3.87;2.73;;;18.90;94.60;;;;;;5065611;28;20635;-89
2022/04/18 11:21:59;;;;;;;3.23;2.80;;;18.80;94.70;;;;;;5048160;28;20248;-90
2022/04/18 11:24:47;;;;;;;3.63;2.93;;;18.70;96.80;;;;;;5065942;28;20252;-91
2022/04/18 11:27:22;;;;;;;3.33;2.90;;;18.80;96.10;;;;;;5066052;28;20201;-91
2022/04/18 11:30:20;;;;;;;3.37;2.00;;;18.80;96.10;;;;;;5048039;28;20200;-88
2022/04/18 11:32:47;;;;;;;3.13;1.93;;;19.30;90.30;;;;;;5046870;28;20217;-91
2022/04/18 11:35:14;;;;;;;5.50;2.70;;;19.20;92.90;;;;;;5046994;28;20336;-90
2022/04/18 11:37:43;;;;;;;3.17;2.80;;;19.20;91.70;;;;;;5047687;28;20320;-91
2022/04/18 11:40:11;;;;;;;3.10;2.70;;;19.20;91.80;;;;;;5081208;28;20225;-91
2022/04/18 11:42:39;;;;;;;3.07;1.93;;;19.00;93.30;;;;;;5065273;28;20221;-91
2022/04/18 11:45:07;;;;;;;2.20;2.00;;;19.00;94.10;;;;;;5047334;28;20238;-89
2022/04/18 11:47:44;;;;;;;2.63;2.20;;;18.90;93.80;;;;;;5064515;28;20990;-89
2022/04/18 11:50:11;;;;;;;2.00;1.80;;;19.00;96.80;;;;;;5047600;28;20221;-90
2022/04/18 11:52:41;;;;;;;2.17;2.03;;;18.80;91.50;;;;;;5047651;28;20220;-91
2022/04/18 11:55:15;;;;;;;3.17;2.30;;;19.00;91.40;;;;;;5080798;28;20245;-90
2022/04/18 11:57:43;;;;;;;4.23;2.30;;;19.10;91.20;;;;;;5047853;28;20611;-89
2022/04/18 12:00:14;;;;;;;3.73;2.50;;;18.60;93.70;;;;;;5065720;28;20193;-90
2022/04/18 12:08:18;;;;;;;2.33;2.10;;;19.20;91.20;;;;;;5065116;28;20274;-88
2022/04/18 12:10:45;;;;;;;3.57;2.73;;;18.80;92.90;;;;;;5081507;28;20304;-87
2022/04/18 12:13:14;;;;;;;3.27;2.60;;;19.10;93.20;;;;;;5064333;28;20235;-90
2022/04/18 12:15:42;;;;;;;3.93;3.00;;;19.60;93.60;;;;;;5080282;28;20217;-92
2022/04/18 12:18:15;;;;;;;2.40;2.20;;;19.20;92.50;;;;;;5045735;28;20704;-90
2022/04/18 12:20:46;;;;;;;2.53;2.33;;;19.50;92.60;;;;;;5064194;28;20229;-94
2022/04/18 12:23:20;;;;;;;3.10;2.17;;;19.00;91.30;;;;;;5079422;28;20311;-92
2022/04/18 12:25:48;;;;;;;4.57;2.23;;;19.10;91.00;;;;;;5063043;28;20225;-89
2022/04/18 12:28:15;;;;;;;2.70;2.50;;;19.20;92.50;;;;;;5044793;28;20370;-92
2022/04/18 12:30:42;;;;;;;2.87;1.80;;;19.20;94.10;;;;;;5079884;28;20217;-92
2022/04/18 12:33:20;;;;;;;5.00;2.60;;;18.90;92.90;;;;;;5064574;28;20192;-89
2022/04/18 12:35:48;;;;;;;3.27;2.97;;;19.50;94.90;;;;;;5065412;28;20653;-90
2022/04/18 12:38:16;;;;;;;3.07;2.87;;;19.50;91.80;;;;;;5063406;28;20229;-86
2022/04/18 12:40:52;;;;;;;2.50;2.30;;;19.00;91.60;;;;;;5049019;28;20210;-90
2022/04/18 12:43:18;;;;;;;4.13;2.37;;;19.30;95.50;;;;;;5064512;28;20669;-90
2022/04/18 12:45:47;;;;;;;5.77;3.10;;;18.90;93.70;;;;;;5063603;28;20339;-92
2022/04/18 12:48:13;;;;;;;3.77;2.63;;;19.10;93.30;;;;;;5062674;28;20193;-88
2022/04/18 12:50:40;;;;;;;2.47;2.27;;;19.50;92.40;;;;;;5064443;28;20727;-90
2022/04/18 12:53:06;;;;;;;3.13;2.60;;;19.30;92.40;;;;;;5064348;28;20213;-89
2022/04/18 12:55:32;;;;;;;3.93;2.57;;;19.00;93.50;;;;;;5064705;28;20232;-91
2022/04/18 12:57:59;;;;;;;4.57;2.57;;;19.20;94.40;;;;;;5079825;28;20225;-89
2022/04/18 13:00:36;;;;;;;3.00;2.70;;;19.20;93.30;;;;;;5063914;28;20631;-90
2022/04/18 13:03:06;;;;;;;10.73;2.67;;;19.20;92.70;;;;;;5064586;28;20744;-90
2022/04/18 13:05:41;;;;;;;3.50;2.90;;;19.10;91.80;;;;;;5046023;28;20221;-89
2022/04/18 13:08:07;;;;;;;4.97;2.37;;;19.20;91.80;;;;;;5045761;28;20228;-90
2022/04/18 13:10:35;;;;;;;3.70;2.77;;;19.50;92.10;;;;;;5079625;28;20213;-90
2022/04/18 13:13:27;;;;;;;2.97;2.70;;;19.00;93.30;;;;;;5045472;28;20247;-88
2022/04/18 13:15:53;;;;;;;2.53;1.63;;;19.00;94.60;;;;;;5045281;28;20243;-90
2022/04/18 13:18:21;;;;;;;3.10;2.47;;;19.00;91.30;;;;;;5078024;28;20639;-89
2022/04/18 13:20:47;;;;;;;2.57;2.20;;;19.20;91.30;;;;;;5063908;28;20712;-89